Time,TemperatureF,DewpointF,PressureIn,WindDirection,WindDirectionDegrees,WindSpeedMPH,WindSpeedGustMPH,Humidity,HourlyPrecipIn,Conditions,Clouds,dailyrainin,SoftwareType,DateUTC
2013-07-06 00:08:00,76.1,72.0,30.10,SW,220,0.0,-999.0,87,-99.99,,,0.00,weatherlink.com 1.10,2013-07-06 04:08:00,
2013-07-06 00:23:00,75.7,72.0,30.09,SW,220,0.0,-999.0,87,-99.99,,,0.00,weatherlink.com 1.10,2013-07-06 04:23:00,
2013-07-06 00:39:00,75.3,72.0,30.09,SW,220,0.0,-999.0,88,-99.99,,,0.00,weatherlink.com 1.10,2013-07-06 04:39:00,
2013-07-06 00:54:00,74.8,71.0,30.10,SW,220,0.0,-999.0,89,-99.99,,,0.00,weatherlink.com 1.10,2013-07-06 04:54:00,
2013-07-06 01:09:00,74.6,71.0,30.10,SW,220,0.0,-999.0,89,-99.99,,,0.00,weatherlink.com 1.10,2013-07-06 05:09:00,
2013-07-06 01:24:00,74.4,71.0,30.10,SW,220,0.0,-999.0,90,-99.99,,,0.00,weatherlink.com 1.10,2013-07-06 05:24:00,
2013-07-06 01:39:00,74.4,72.0,30.10,SW,220,0.0,-999.0,91,-99.99,,,0.00,weatherlink.com 1.10,2013-07-06 05:39:00,
2013-07-06 01:54:00,74.4,72.0,30.10,SW,220,0.0,-999.0,91,-99.99,,,0.00,weatherlink.com 1.10,2013-07-06 05:54:00,
2013-07-06 02:09:00,74.4,72.0,30.10,SW,220,0.0,-999.0,91,-99.99,,,0.00,weatherlink.com 1.10,2013-07-06 06:09:00,
2013-07-06 02:24:00,74.1,71.0,30.11,SW,220,0.0,-999.0,91,-99.99,,,0.00,weatherlink.com 1.10,2013-07-06 06:24:00,
2013-07-06 02:39:00,73.8,71.0,30.11,SW,220,0.0,-999.0,91,-99.99,,,0.00,weatherlink.com 1.10,2013-07-06 06:39:00,
2013-07-06 02:54:00,73.5,71.0,30.11,SW,220,0.0,-999.0,91,-99.99,,,0.00,weatherlink.com 1.10,2013-07-06 06:54:00,
2013-07-06 03:09:00,73.1,70.0,30.11,SW,220,0.0,-999.0,91,-99.99,,,0.00,weatherlink.com 1.10,2013-07-06 07:09:00,
2013-07-06 03:24:00,72.8,70.0,30.11,SW,220,0.0,-999.0,92,-99.99,,,0.00,weatherlink.com 1.10,2013-07-06 07:24:00,
2013-07-06 03:39:00,72.6,70.0,30.12,SW,220,0.0,-999.0,92,-99.99,,,0.00,weatherlink.com 1.10,2013-07-06 07:39:00,
2013-07-06 03:54:00,72.2,70.0,30.11,SW,220,0.0,-999.0,92,-99.99,,,0.00,weatherlink.com 1.10,2013-07-06 07:54:00,
2013-07-06 04:09:00,72.0,70.0,30.11,SW,220,0.0,-999.0,92,-99.99,,,0.00,weatherlink.com 1.10,2013-07-06 08:09:00,
2013-07-06 04:24:00,71.8,70.0,30.11,SW,220,0.0,-999.0,93,-99.99,,,0.00,weatherlink.com 1.10,2013-07-06 08:24:00,
2013-07-06 04:39:00,71.4,69.0,30.11,SW,220,0.0,-999.0,93,-99.99,,,0.00,weatherlink.com 1.10,2013-07-06 08:39:00,
2013-07-06 04:54:00,71.3,69.0,30.11,SW,220,0.0,-999.0,93,-99.99,,,0.00,weatherlink.com 1.10,2013-07-06 08:54:00,
2013-07-06 05:09:00,71.1,69.0,30.12,SW,220,0.0,-999.0,93,-99.99,,,0.00,weatherlink.com 1.10,2013-07-06 09:09:00,
2013-07-06 05:24:00,70.8,69.0,30.11,SW,220,0.0,-999.0,93,-99.99,,,0.00,weatherlink.com 1.10,2013-07-06 09:24:00,
2013-07-06 05:39:00,70.5,68.0,30.12,SW,220,0.0,-999.0,93,-99.99,,,0.00,weatherlink.com 1.10,2013-07-06 09:39:00,
2013-07-06 05:54:00,70.3,68.0,30.12,SW,220,0.0,-999.0,93,-99.99,,,0.00,weatherlink.com 1.10,2013-07-06 09:54:00,
2013-07-06 06:09:00,70.2,69.0,30.12,SW,220,0.0,-999.0,94,-99.99,,,0.00,weatherlink.com 1.10,2013-07-06 10:09:00,
2013-07-06 06:24:00,70.1,68.0,30.12,SW,220,0.0,-999.0,94,-99.99,,,0.00,weatherlink.com 1.10,2013-07-06 10:24:00,
2013-07-06 06:39:00,70.2,69.0,30.13,SW,220,0.0,-999.0,94,-99.99,,,0.00,weatherlink.com 1.10,2013-07-06 10:39:00,
2013-07-06 06:54:00,70.6,69.0,30.14,SW,220,0.0,-999.0,94,-99.99,,,0.00,weatherlink.com 1.10,2013-07-06 10:54:00,
2013-07-06 07:09:00,71.2,70.0,30.14,SW,220,0.0,-999.0,95,-99.99,,,0.00,weatherlink.com 1.10,2013-07-06 11:09:00,
2013-07-06 07:24:00,71.8,70.0,30.14,SW,220,0.0,-999.0,95,-99.99,,,0.00,weatherlink.com 1.10,2013-07-06 11:24:00,
2013-07-06 07:39:00,72.5,71.0,30.14,SW,220,0.0,-999.0,95,-99.99,,,0.00,weatherlink.com 1.10,2013-07-06 11:39:00,
2013-07-06 07:54:00,73.4,72.0,30.14,SW,220,0.0,-999.0,95,-99.99,,,0.00,weatherlink.com 1.10,2013-07-06 11:54:00,
2013-07-06 08:09:00,74.2,73.0,30.14,SW,220,0.0,-999.0,95,-99.99,,,0.00,weatherlink.com 1.10,2013-07-06 12:09:00,
2013-07-06 08:24:00,75.5,74.0,30.14,SSW,194,0.0,-999.0,94,-99.99,,,0.00,weatherlink.com 1.10,2013-07-06 12:24:00,
2013-07-06 08:39:00,76.9,74.0,30.14,SSW,194,0.0,-999.0,91,-99.99,,,0.00,weatherlink.com 1.10,2013-07-06 12:39:00,
2013-07-06 08:54:00,78.4,74.0,30.14,SSW,194,0.0,-999.0,86,-99.99,,,0.00,weatherlink.com 1.10,2013-07-06 12:54:00,
2013-07-06 09:10:00,79.3,74.0,30.13,South,191,0.0,-999.0,84,-99.99,,,0.00,weatherlink.com 1.10,2013-07-06 13:10:00,
2013-07-06 09:24:00,80.5,74.0,30.13,WNW,303,1.0,-999.0,81,-99.99,,,0.00,weatherlink.com 1.10,2013-07-06 13:24:00,
2013-07-06 09:40:00,81.2,75.0,30.13,West,261,0.0,-999.0,81,-99.99,,,0.00,weatherlink.com 1.10,2013-07-06 13:40:00,
2013-07-06 09:54:00,82.0,74.0,30.13,West,272,1.0,-999.0,76,-99.99,,,0.00,weatherlink.com 1.10,2013-07-06 13:54:00,
2013-07-06 10:09:00,82.0,74.0,30.13,SSW,204,2.0,-999.0,77,-99.99,,,0.00,weatherlink.com 1.10,2013-07-06 14:09:00,
2013-07-06 10:25:00,82.6,74.0,30.13,SW,226,0.0,-999.0,75,-99.99,,,0.00,weatherlink.com 1.10,2013-07-06 14:25:00,
2013-07-06 10:40:00,83.2,74.0,30.13,West,275,0.0,-999.0,74,-99.99,,,0.00,weatherlink.com 1.10,2013-07-06 14:40:00,
2013-07-06 10:55:00,84.2,75.0,30.13,South,173,4.0,-999.0,73,-99.99,,,0.00,weatherlink.com 1.10,2013-07-06 14:55:00,
2013-07-06 11:10:00,84.6,74.0,30.12,SSW,207,1.0,-999.0,71,-99.99,,,0.00,weatherlink.com 1.10,2013-07-06 15:10:00,
2013-07-06 11:25:00,85.6,74.0,30.12,WSW,256,3.0,-999.0,69,-99.99,,,0.00,weatherlink.com 1.10,2013-07-06 15:25:00,
2013-07-06 11:40:00,85.7,74.0,30.12,NW,325,4.0,-999.0,68,-99.99,,,0.00,weatherlink.com 1.10,2013-07-06 15:40:00,
2013-07-06 11:55:00,86.3,74.0,30.12,SSW,192,2.0,-999.0,66,-99.99,,,0.00,weatherlink.com 1.10,2013-07-06 15:55:00,
2013-07-06 12:10:00,87.5,74.0,30.12,SSW,209,1.0,-999.0,65,-99.99,,,0.00,weatherlink.com 1.10,2013-07-06 16:10:00,
2013-07-06 12:25:00,88.6,74.0,30.11,SW,233,5.0,-999.0,63,-99.99,,,0.00,weatherlink.com 1.10,2013-07-06 16:25:00,
2013-07-06 12:40:00,89.7,75.0,30.11,SW,232,1.0,-999.0,62,-99.99,,,0.00,weatherlink.com 1.10,2013-07-06 16:40:00,
2013-07-06 12:55:00,90.6,76.0,30.10,NW,305,2.0,-999.0,62,-99.99,,,0.00,weatherlink.com 1.10,2013-07-06 16:55:00,
2013-07-06 13:40:00,90.4,75.0,30.09,SSW,198,1.0,-999.0,61,-99.99,,,0.00,weatherlink.com 1.10,2013-07-06 17:40:00,
2013-07-06 13:55:00,90.7,73.0,30.08,WSW,250,0.0,-999.0,57,-99.99,,,0.00,weatherlink.com 1.10,2013-07-06 17:55:00,
2013-07-06 14:10:00,90.0,74.0,30.08,SSW,195,1.0,-999.0,60,-99.99,,,0.00,weatherlink.com 1.10,2013-07-06 18:10:00,
2013-07-06 14:40:00,92.1,75.0,30.07,WSW,247,5.0,-999.0,58,-99.99,,,0.00,weatherlink.com 1.10,2013-07-06 18:40:00,
2013-07-06 14:55:00,91.7,75.0,30.07,SW,215,0.0,-999.0,58,-99.99,,,0.00,weatherlink.com 1.10,2013-07-06 18:55:00,
2013-07-06 15:10:00,92.7,74.0,30.07,SW,216,3.0,-999.0,54,-99.99,,,0.00,weatherlink.com 1.10,2013-07-06 19:10:00,
2013-07-06 15:55:00,93.3,73.0,30.05,SSW,205,1.0,-999.0,52,-99.99,,,0.00,weatherlink.com 1.10,2013-07-06 19:55:00,
2013-07-06 16:26:00,93.6,75.0,30.04,West,261,0.0,-999.0,55,-99.99,,,0.00,weatherlink.com 1.10,2013-07-06 20:26:00,
2013-07-06 17:11:00,94.7,75.0,30.03,WSW,256,0.0,-999.0,53,-99.99,,,0.00,weatherlink.com 1.10,2013-07-06 21:11:00,
2013-07-06 17:26:00,95.1,76.0,30.02,WSW,254,1.0,-999.0,55,-99.99,,,0.00,weatherlink.com 1.10,2013-07-06 21:26:00,
2013-07-06 17:35:00,94.9,74.5,30.02,SW,227,2.0,3.0,52,0.00,,,0.00,Wunderground v.1.15,2013-07-06 21:35:00,
2013-07-06 17:40:00,94.4,74.6,30.02,SSW,213,3.0,3.0,53,0.00,,,0.00,Wunderground v.1.15,2013-07-06 21:40:00,
2013-07-06 17:42:00,94.4,76.0,30.02,West,263,1.0,-999.0,55,-99.99,,,0.00,weatherlink.com 1.10,2013-07-06 21:42:00,
2013-07-06 17:50:00,94.6,75.9,30.02,WSW,239,1.0,4.0,55,0.00,,,0.00,Wunderground v.1.15,2013-07-06 21:50:00,
2013-07-06 17:55:00,94.7,76.6,30.02,SW,217,1.0,4.0,56,0.00,,,0.00,Wunderground v.1.15,2013-07-06 21:55:00,
2013-07-06 18:00:00,94.8,75.6,30.02,SSW,193,1.0,1.0,54,0.00,,,0.00,Wunderground v.1.15,2013-07-06 22:00:00,
2013-07-06 18:05:00,95.1,76.4,30.02,SSW,192,0.0,6.0,55,0.00,,,0.00,Wunderground v.1.15,2013-07-06 22:05:00,
2013-07-06 18:12:00,95.0,76.0,30.01,South,186,0.0,-999.0,54,-99.99,,,0.00,weatherlink.com 1.10,2013-07-06 22:12:00,
2013-07-06 18:25:00,95.2,75.9,30.01,South,173,0.0,6.0,54,0.00,,,0.00,Wunderground v.1.15,2013-07-06 22:25:00,
2013-07-06 18:35:00,95.4,75.6,30.01,South,173,0.0,6.0,53,0.00,,,0.00,Wunderground v.1.15,2013-07-06 22:35:00,
2013-07-06 18:45:00,95.4,75.0,30.00,NNW,347,0.0,6.0,52,0.00,,,0.00,Wunderground v.1.15,2013-07-06 22:45:00,
2013-07-06 18:50:00,95.4,75.6,30.00,NNW,347,0.0,6.0,53,0.00,,,0.00,Wunderground v.1.15,2013-07-06 22:50:00,
2013-07-06 18:55:00,95.4,76.1,30.00,SSE,165,0.0,6.0,54,0.00,,,0.00,Wunderground v.1.15,2013-07-06 22:55:00,
2013-07-06 19:00:00,95.4,76.1,30.00,SSE,166,0.0,6.0,54,0.00,,,0.00,Wunderground v.1.15,2013-07-06 23:00:00,
2013-07-06 19:10:00,95.4,76.1,30.00,SSE,166,0.0,6.0,54,0.00,,,0.00,Wunderground v.1.15,2013-07-06 23:10:00,
2013-07-06 19:15:00,95.4,77.2,30.00,SSE,166,0.0,6.0,56,0.00,,,0.00,Wunderground v.1.15,2013-07-06 23:15:00,
2013-07-06 19:25:00,95.0,76.8,30.00,SSE,166,0.0,6.0,56,0.00,,,0.00,Wunderground v.1.15,2013-07-06 23:25:00,
2013-07-06 19:27:00,94.7,77.0,30.00,SSE,166,0.0,-999.0,57,-99.99,,,0.00,weatherlink.com 1.10,2013-07-06 23:27:00,
2013-07-06 19:30:00,94.5,77.4,30.00,SSE,166,0.0,6.0,58,0.00,,,0.00,Wunderground v.1.15,2013-07-06 23:30:00,
2013-07-06 19:45:00,93.1,76.6,30.00,SSE,166,0.0,6.0,59,0.00,,,0.00,Wunderground v.1.15,2013-07-06 23:45:00,
2013-07-06 19:55:00,91.9,77.5,30.00,SSE,166,0.0,6.0,63,0.00,,,0.00,Wunderground v.1.15,2013-07-06 23:55:00,
2013-07-06 20:05:00,90.7,76.8,30.00,SSE,166,0.0,6.0,64,0.00,,,0.00,Wunderground v.1.15,2013-07-07 00:05:00,
2013-07-06 20:10:00,90.0,76.2,30.00,SSE,166,0.0,6.0,64,0.00,,,0.00,Wunderground v.1.15,2013-07-07 00:10:00,
2013-07-06 20:13:00,89.3,76.0,30.00,SSE,166,0.0,-999.0,65,-99.99,,,0.00,weatherlink.com 1.10,2013-07-07 00:13:00,
2013-07-06 20:20:00,88.3,75.5,30.01,SSE,166,0.0,6.0,66,0.00,,,0.00,Wunderground v.1.15,2013-07-07 00:20:00,
2013-07-06 20:30:00,87.0,74.7,30.01,SSE,166,0.0,6.0,67,0.00,,,0.00,Wunderground v.1.15,2013-07-07 00:30:00,
2013-07-06 20:44:00,85.2,74.0,30.01,SSE,166,0.0,-999.0,69,-99.99,,,0.00,weatherlink.com 1.10,2013-07-07 00:44:00,
2013-07-06 20:58:00,83.8,74.0,30.01,SSE,166,0.0,-999.0,72,-99.99,,,0.00,weatherlink.com 1.10,2013-07-07 00:58:00,
2013-07-06 21:05:00,83.1,73.5,30.01,SSE,166,0.0,6.0,73,0.00,,,0.00,Wunderground v.1.15,2013-07-07 01:05:00,
2013-07-06 21:10:00,82.7,73.6,30.01,SSE,166,0.0,6.0,74,0.00,,,0.00,Wunderground v.1.15,2013-07-07 01:10:00,
2013-07-06 21:13:00,82.4,74.0,30.01,SSE,166,0.0,-999.0,75,-99.99,,,0.00,weatherlink.com 1.10,2013-07-07 01:13:00,
2013-07-06 21:30:00,81.3,73.4,30.02,SSE,166,0.0,6.0,77,0.00,,,0.00,Wunderground v.1.15,2013-07-07 01:30:00,
2013-07-06 21:35:00,81.0,73.5,30.02,SSE,166,0.0,6.0,78,0.00,,,0.00,Wunderground v.1.15,2013-07-07 01:35:00,
2013-07-06 21:50:00,80.1,73.4,30.03,SSE,166,0.0,6.0,80,0.00,,,0.00,Wunderground v.1.15,2013-07-07 01:50:00,
2013-07-06 21:55:00,79.8,73.1,30.03,SSE,166,0.0,6.0,80,0.00,,,0.00,Wunderground v.1.15,2013-07-07 01:55:00,
2013-07-06 21:59:00,79.6,73.0,30.03,SSE,166,0.0,-999.0,80,-99.99,,,0.00,weatherlink.com 1.10,2013-07-07 01:59:00,
2013-07-06 22:05:00,79.2,72.9,30.03,SSE,166,0.0,6.0,81,0.00,,,0.00,Wunderground v.1.15,2013-07-07 02:05:00,
2013-07-06 22:10:00,79.0,73.0,30.03,SSE,166,0.0,6.0,82,0.00,,,0.00,Wunderground v.1.15,2013-07-07 02:10:00,
2013-07-06 22:20:00,78.6,72.6,30.03,SSE,166,0.0,6.0,82,0.00,,,0.00,Wunderground v.1.15,2013-07-07 02:20:00,
2013-07-06 22:29:00,78.2,72.0,30.03,SSE,166,0.0,-999.0,82,-99.99,,,0.00,weatherlink.com 1.10,2013-07-07 02:29:00,
2013-07-06 22:40:00,77.8,72.2,30.04,SSE,166,0.0,6.0,83,0.00,,,0.00,Wunderground v.1.15,2013-07-07 02:40:00,
2013-07-06 22:45:00,77.7,72.0,30.04,SSE,166,0.0,-999.0,83,-99.99,,,0.00,weatherlink.com 1.10,2013-07-07 02:45:00,
2013-07-06 22:50:00,77.5,71.9,30.03,SSE,166,0.0,6.0,83,0.00,,,0.00,Wunderground v.1.15,2013-07-07 02:50:00,
2013-07-06 22:59:00,77.3,72.0,30.04,SSE,166,0.0,-999.0,84,-99.99,,,0.00,weatherlink.com 1.10,2013-07-07 02:59:00,
2013-07-06 23:14:00,76.6,72.0,30.04,SSE,166,0.0,-999.0,85,-99.99,,,0.00,weatherlink.com 1.10,2013-07-07 03:14:00,
2013-07-06 23:29:00,76.1,72.0,30.04,SSE,166,0.0,-999.0,86,-99.99,,,0.00,weatherlink.com 1.10,2013-07-07 03:29:00,
2013-07-06 23:59:00,75.4,71.0,30.05,SSE,166,0.0,-999.0,87,-99.99,,,0.00,weatherlink.com 1.10,2013-07-07 03:59:00,